Iliamna, AK (99606)

7:34 PM AKST on December 19, 2014 (GMT -0900)
Iliamna | Change Station
CLOSE
Current Station
Airport
Location: Iliamna,
Elevation: 161 ft
Nearby Weather Stations

Elev 161 ft 59.75 °N, 154.91 °W | Updated 41 minutes ago

Mostly Cloudy
Mostly Cloudy
34 °F
Feels Like 27 °F
N
8
Wind Variable Wind from NNE

Today
High -- | Low -- °F
--% Chance of Precip.
Yesterday
High -- | Low -- °F
Precip. -- in
10:18 AM 4:18 PM
Waning Crescent, 4% visible
Pressure 29.00 in
Visibility 10.0 miles
Clouds Scattered Clouds 4000 ft
Mostly Cloudy 6500 ft
Mostly Cloudy 13000 ft
Windchill 27 °F
Dew Point 24 °F
Humidity 67%
Rainfall 0.00 in
Snow Depth Not available.
UV 0 out of 12
Pollen Not available.
Air Quality Not available.
Flu Activity Not available.
METAR PAIL 200353Z 02007KT 10SM SCT040 BKN065 BKN130 01/M04 A2899 RMK AO2 SLP821 T00111044

More Conditions Fewer Conditions

Pressure 29.00 in
Visibility 10.0 miles
Clouds Scattered Clouds 4000 ft
Mostly Cloudy 6500 ft
Mostly Cloudy 13000 ft
Windchill 27 °F
Dew Point 24 °F
Humidity 67%
Rainfall 0.00 in
Snow Depth Not available.
UV 0 out of 12
Pollen Not available.
Air Quality Not available.
Flu Activity Not available.
METAR PAIL 200353Z 02007KT 10SM SCT040 BKN065 BKN130 01/M04 A2899 RMK AO2 SLP821 T00111044

More Conditions Fewer Conditions

10-Day Weather Forecast

Almanac

Astronomy

Dec. 19, 2014 Rise Set
Actual Time
Civil Twilight
Nautical Twilight
Astronomical Twilight
Moon
Length of Visible Light
Length of Day
Tomorrow will be .
, % of the Moon is Illuminated

Today's Extremes

State Highs State Lows

Community

WunderPhotos

Upload Photos

1,779,130 photos uploaded!

WunderBlogs® & News

Nearby

Air Quality

  Air Quality AQ Index Pollutant
Not available.

Snow Depth

Station Depth Elevation

Earthquake Activity

City Distance Mag. Time & Date
Minimum magnitude displayed is 2.5.

Coastal Water Temperatures

Place Temperature

Nearby Weather Stations